createdAt,value
2022-11-06T00:01:20.437Z,117.00
2022-11-06T00:03:47.064Z,120.40
2022-11-06T00:06:34.295Z,126.43
2022-11-06T00:09:03.860Z,113.82
2022-11-06T00:11:30.659Z,119.07
2022-11-06T00:13:57.722Z,88.55
2022-11-06T00:16:24.647Z,100.03
2022-11-06T00:18:51.694Z,95.07
2022-11-06T00:21:22.669Z,104.95
2022-11-06T00:23:49.908Z,95.60
2022-11-06T00:26:19.885Z,87.32
2022-11-06T00:28:47.264Z,100.25
2022-11-06T00:31:16.839Z,92.72
2022-11-06T00:33:44.307Z,120.97
2022-11-06T00:36:14.073Z,122.75
2022-11-06T00:38:40.704Z,104.35
2022-11-06T00:41:17.142Z,90.85
2022-11-06T00:43:53.258Z,106.28
2022-11-06T00:46:20.165Z,110.60
2022-11-06T00:48:47.196Z,136.38
2022-11-06T00:51:21.963Z,88.22
2022-11-06T00:53:53.424Z,118.78
2022-11-06T00:56:20.689Z,121.88
2022-11-06T00:58:48.228Z,87.18
2022-11-06T01:01:24.073Z,158.43
2022-11-06T01:03:59.903Z,77.07
2022-11-06T01:06:30.617Z,94.60
2022-11-06T01:08:57.456Z,83.97
2022-11-06T01:11:46.577Z,102.07
2022-11-06T01:14:18.872Z,196.30
2022-11-06T01:16:45.678Z,96.05
2022-11-06T01:19:14.581Z,92.07
2022-11-06T01:21:43.277Z,95.95
2022-11-06T01:24:19.013Z,104.85
2022-11-06T01:27:12.100Z,92.13
2022-11-06T01:29:32.771Z,241.60
2022-11-06T01:31:59.367Z,98.18
2022-11-06T01:34:26.277Z,104.55
2022-11-06T01:36:53.222Z,101.43
2022-11-06T01:39:19.872Z,102.68
2022-11-06T01:41:51.802Z,120.30
2022-11-06T01:44:33.398Z,104.55
2022-11-06T01:47:02.322Z,95.22
2022-11-06T01:49:33.703Z,98.32
2022-11-06T01:52:08.550Z,99.55
2022-11-06T01:54:38.079Z,122.72
2022-11-06T01:57:05.644Z,86.05
2022-11-06T01:59:36.246Z,99.85
2022-11-06T02:02:03.195Z,85.68
2022-11-06T02:04:36.197Z,87.15
2022-11-06T02:07:03.372Z,82.95
2022-11-06T02:09:32.088Z,92.13
2022-11-06T02:12:16.907Z,80.68
2022-11-06T02:15:19.829Z,78.82
2022-11-06T02:18:07.838Z,79.35
2022-11-06T02:20:52.592Z,79.15
2022-11-06T02:23:45.875Z,82.97
2022-11-06T02:26:34.109Z,80.05
2022-11-06T02:29:06.059Z,96.80
2022-11-06T02:31:35.581Z,77.28
2022-11-06T02:34:09.966Z,79.78
2022-11-06T02:36:43.136Z,70.47
2022-11-06T02:39:15.262Z,74.65
2022-11-06T02:41:45.977Z,72.05
2022-11-06T02:44:19.181Z,83.93
2022-11-06T02:47:08.504Z,67.47
2022-11-06T02:49:53.578Z,69.38
2022-11-06T02:52:26.603Z,87.22
2022-11-06T02:55:00.711Z,77.32
2022-11-06T02:57:32.057Z,76.90
2022-11-06T03:00:07.320Z,75.90
2022-11-06T03:02:43.330Z,89.97
2022-11-06T03:05:17.356Z,78.13
2022-11-06T03:08:10.875Z,78.45
2022-11-06T03:10:47.391Z,75.43
2022-11-06T03:13:27.333Z,75.15
2022-11-06T03:16:14.879Z,79.32
2022-11-06T03:19:12.139Z,75.70
2022-11-06T03:21:49.756Z,81.65
2022-11-06T03:24:22.664Z,81.70
2022-11-06T03:26:53.599Z,80.38
2022-11-06T03:29:34.088Z,72.57
2022-11-06T03:32:30.228Z,83.32
2022-11-06T03:35:25.780Z,91.03
2022-11-06T03:37:55.307Z,83.25
2022-11-06T03:40:26.111Z,81.15
2022-11-06T03:42:57.694Z,89.13
2022-11-06T03:45:26.721Z,81.03
2022-11-06T03:47:56.611Z,84.68
2022-11-06T03:50:29.940Z,74.95
2022-11-06T03:53:03.474Z,83.65
2022-11-06T03:55:38.534Z,79.00
2022-11-06T03:58:08.635Z,76.30
2022-11-06T04:00:39.125Z,75.13
2022-11-06T04:03:18.942Z,74.68
2022-11-06T04:05:52.120Z,92.30
2022-11-06T04:08:41.914Z,70.65
2022-11-06T04:11:31.930Z,87.75
2022-11-06T04:14:02.940Z,73.88
2022-11-06T04:16:36.304Z,75.40
2022-11-06T04:19:06.108Z,80.05
2022-11-06T04:21:41.417Z,74.82
2022-11-06T04:24:49.923Z,73.07
2022-11-06T04:27:49.624Z,68.10
2022-11-06T04:30:20.647Z,74.72
2022-11-06T04:33:08.257Z,78.60
2022-11-06T04:35:40.771Z,89.25
2022-11-06T04:38:31.015Z,83.28
2022-11-06T04:41:34.450Z,75.32
2022-11-06T04:44:09.939Z,71.15
2022-11-06T04:46:48.828Z,80.82
2022-11-06T04:49:16.886Z,88.57
2022-11-06T04:51:46.063Z,76.88
2022-11-06T04:54:14.063Z,79.32
2022-11-06T04:56:45.691Z,73.15
2022-11-06T05:01:40.785Z,92.28
2022-11-06T05:04:07.457Z,73.30
2022-11-06T05:06:34.049Z,75.93
2022-11-06T05:09:01.314Z,68.28
2022-11-06T05:11:27.914Z,87.22
2022-11-06T05:13:54.748Z,73.00
2022-11-06T05:16:21.434Z,73.82
2022-11-06T05:18:48.053Z,88.72
2022-11-06T05:21:33.142Z,83.18
2022-11-06T05:23:59.725Z,99.38
2022-11-06T05:26:26.765Z,88.78
2022-11-06T05:28:53.340Z,88.65
2022-11-06T05:31:19.921Z,87.88
2022-11-06T05:33:46.572Z,87.90
2022-11-06T05:36:13.278Z,102.10
2022-11-06T05:38:40.270Z,89.72
2022-11-06T05:41:06.847Z,81.55
2022-11-06T05:43:33.508Z,84.45
2022-11-06T05:46:00.639Z,82.38
2022-11-06T05:48:28.801Z,87.45
2022-11-06T05:51:06.970Z,101.40
2022-11-06T05:53:36.647Z,95.40
2022-11-06T05:56:05.022Z,100.05
2022-11-06T05:58:31.935Z,103.43
2022-11-06T06:00:59.484Z,114.93
2022-11-06T06:03:26.144Z,113.53
2022-11-06T06:05:52.814Z,93.78
2022-11-06T06:08:19.408Z,99.78
2022-11-06T06:10:47.663Z,89.93
2022-11-06T06:13:15.096Z,97.65
2022-11-06T06:15:43.230Z,93.10
2022-11-06T06:18:10.245Z,115.15
2022-11-06T06:20:37.804Z,106.40
2022-11-06T06:23:06.381Z,113.32
2022-11-06T06:25:35.869Z,105.70
2022-11-06T06:28:02.669Z,108.07
2022-11-06T06:30:29.339Z,109.65
2022-11-06T06:32:55.927Z,114.75
2022-11-06T06:35:22.544Z,112.40
2022-11-06T06:37:54.204Z,119.03
2022-11-06T06:40:21.832Z,100.82
2022-11-06T06:42:48.498Z,112.45
2022-11-06T06:45:15.405Z,122.32
2022-11-06T06:47:42.251Z,116.65
2022-11-06T06:50:09.541Z,120.22
2022-11-06T06:52:36.200Z,98.95
2022-11-06T06:55:02.833Z,114.13
2022-11-06T06:57:29.416Z,107.35
2022-11-06T06:59:55.987Z,115.28
2022-11-06T07:02:22.661Z,117.40
2022-11-06T07:04:49.297Z,103.97
2022-11-06T07:07:15.889Z,115.95
2022-11-06T07:09:42.518Z,99.15
2022-11-06T07:12:09.317Z,97.20
2022-11-06T07:14:35.886Z,109.68
2022-11-06T07:17:02.537Z,118.38
2022-11-06T07:19:29.131Z,117.25
2022-11-06T07:21:55.748Z,115.50
2022-11-06T07:24:22.411Z,119.53
2022-11-06T07:26:49.008Z,131.80
2022-11-06T07:29:15.648Z,117.38
2022-11-06T07:31:42.290Z,121.38
2022-11-06T07:34:09.924Z,129.52
2022-11-06T07:36:36.593Z,138.95
2022-11-06T07:39:03.318Z,126.45
2022-11-06T07:41:29.912Z,123.30
2022-11-06T07:43:56.541Z,126.32
2022-11-06T07:46:23.188Z,124.18
2022-11-06T07:48:50.098Z,124.72
2022-11-06T07:51:16.809Z,133.82
2022-11-06T07:53:43.388Z,152.45
2022-11-06T07:56:10.081Z,138.23
2022-11-06T07:58:37.089Z,165.45
2022-11-06T08:01:03.888Z,147.93
2022-11-06T08:03:31.030Z,158.50
2022-11-06T08:06:02.722Z,126.30
2022-11-06T08:08:29.444Z,150.02
2022-11-06T08:10:56.055Z,152.88
2022-11-06T08:13:22.672Z,141.10
2022-11-06T08:15:49.307Z,131.27
2022-11-06T08:18:16.564Z,129.93
2022-11-06T08:20:43.545Z,107.47
2022-11-06T08:23:12.878Z,119.57
2022-11-06T08:25:40.096Z,114.90
2022-11-06T08:28:06.789Z,111.20
2022-11-06T08:30:33.406Z,117.50
2022-11-06T08:33:02.297Z,100.75
2022-11-06T08:35:29.291Z,104.05
2022-11-06T08:37:56.561Z,115.65
2022-11-06T08:40:28.053Z,115.53
2022-11-06T08:43:09.428Z,110.30
2022-11-06T08:45:40.988Z,109.57
2022-11-06T08:48:08.755Z,127.63
2022-11-06T08:50:37.727Z,107.65
2022-11-06T08:53:06.509Z,130.90
2022-11-06T08:55:34.602Z,118.22
2022-11-06T08:58:01.641Z,113.53
2022-11-06T09:00:29.290Z,113.25
2022-11-06T09:03:00.537Z,115.25
2022-11-06T09:05:27.903Z,117.30
2022-11-06T09:07:54.570Z,121.35
2022-11-06T09:10:21.211Z,116.90
2022-11-06T09:12:48.065Z,114.88
2022-11-06T09:15:14.722Z,106.30
2022-11-06T09:17:45.503Z,106.10
2022-11-06T09:20:13.801Z,107.47
2022-11-06T09:22:41.049Z,104.80
2022-11-06T09:25:08.545Z,115.13
2022-11-06T09:27:45.619Z,121.10
2022-11-06T09:30:14.860Z,113.00
2022-11-06T09:32:49.804Z,110.65
2022-11-06T09:35:16.611Z,107.88
2022-11-06T09:37:43.468Z,100.72
2022-11-06T09:40:20.154Z,120.45
2022-11-06T09:42:58.521Z,106.75
2022-11-06T09:45:29.843Z,101.53
2022-11-06T09:48:10.749Z,99.35
2022-11-06T09:50:44.869Z,120.55
2022-11-06T09:53:20.464Z,105.80
2022-11-06T09:55:49.664Z,129.77
2022-11-06T09:58:21.854Z,123.53
2022-11-06T10:00:51.811Z,133.05
2022-11-06T10:03:29.563Z,142.80
2022-11-06T10:05:56.366Z,128.73
2022-11-06T10:08:25.518Z,127.05
2022-11-06T10:11:03.610Z,112.05
2022-11-06T10:13:45.402Z,120.00
2022-11-06T10:16:23.440Z,126.53
2022-11-06T10:19:20.185Z,124.20
2022-11-06T10:21:49.195Z,145.23
2022-11-06T10:24:21.600Z,120.93
2022-11-06T10:26:55.983Z,140.38
2022-11-06T10:29:48.727Z,122.35
2022-11-06T10:32:33.965Z,138.95
2022-11-06T10:35:05.306Z,123.50
2022-11-06T10:37:46.364Z,135.15
2022-11-06T10:40:29.049Z,140.13
2022-11-06T10:43:24.999Z,137.25
2022-11-06T10:45:58.763Z,152.38
2022-11-06T10:48:35.707Z,152.82
2022-11-06T10:51:43.520Z,167.90
2022-11-06T10:54:21.681Z,148.35
2022-11-06T10:57:03.493Z,175.60
2022-11-06T10:59:30.364Z,166.02
2022-11-06T11:01:57.385Z,164.32
2022-11-06T11:04:24.092Z,169.30
2022-11-06T11:06:50.674Z,162.32
2022-11-06T11:09:32.420Z,165.63
2022-11-06T11:12:00.307Z,163.43
2022-11-06T11:14:31.537Z,173.63
2022-11-06T11:17:01.173Z,164.20
2022-11-06T11:19:35.272Z,161.35
2022-11-06T11:22:18.023Z,179.30
2022-11-06T11:25:04.743Z,171.88
2022-11-06T11:27:37.516Z,183.13
2022-11-06T11:30:06.132Z,204.90
2022-11-06T11:32:33.425Z,178.27
2022-11-06T11:35:00.453Z,172.63
2022-11-06T11:37:34.109Z,180.23
2022-11-06T11:40:28.972Z,183.20
2022-11-06T11:43:20.780Z,182.15
2022-11-06T11:46:08.785Z,198.05
2022-11-06T11:48:48.128Z,174.75
2022-11-06T11:51:39.636Z,183.57
2022-11-06T11:54:18.506Z,160.20
2022-11-06T11:57:10.292Z,169.35
2022-11-06T11:59:44.650Z,190.07
2022-11-06T12:02:28.238Z,161.93
2022-11-06T12:05:22.873Z,203.65
2022-11-06T12:07:57.771Z,172.75
2022-11-06T12:10:36.507Z,183.15
2022-11-06T12:13:06.548Z,187.70
2022-11-06T12:15:51.781Z,198.98
2022-11-06T12:18:23.687Z,215.18
2022-11-06T12:23:51.737Z,163.65
2022-11-06T12:26:34.467Z,173.27
2022-11-06T12:29:22.475Z,180.40
2022-11-06T12:32:07.849Z,221.13
2022-11-06T12:34:45.400Z,251.90
2022-11-06T12:37:29.466Z,189.65
2022-11-06T12:40:02.869Z,210.63
2022-11-06T12:42:32.808Z,158.48
2022-11-06T12:45:00.086Z,182.48
2022-11-06T12:47:32.376Z,177.95
2022-11-06T12:50:17.227Z,256.85
2022-11-06T12:53:13.023Z,232.88
2022-11-06T12:55:47.685Z,237.60
2022-11-06T12:58:29.194Z,183.10
2022-11-06T13:01:14.715Z,153.85
2022-11-06T13:03:57.336Z,151.27
2022-11-06T13:07:01.403Z,286.58
2022-11-06T13:09:37.030Z,254.23
2022-11-06T13:12:19.386Z,176.68
2022-11-06T13:15:05.936Z,187.25
2022-11-06T13:17:43.221Z,159.25
2022-11-06T13:20:17.173Z,184.45
2022-11-06T13:23:06.871Z,199.85
2022-11-06T13:25:48.078Z,159.13
2022-11-06T13:28:23.523Z,158.53
2022-11-06T13:30:52.211Z,148.68
2022-11-06T13:33:28.560Z,165.98
2022-11-06T13:35:55.857Z,169.38
2022-11-06T13:38:33.641Z,180.68
2022-11-06T13:41:05.440Z,338.95
2022-11-06T13:46:06.291Z,134.20
2022-11-06T13:48:57.805Z,224.88
2022-11-06T13:51:56.535Z,211.38
2022-11-06T13:54:39.844Z,150.77
2022-11-06T13:57:12.367Z,157.88
2022-11-06T13:59:50.116Z,185.90
2022-11-06T14:02:34.996Z,320.38
2022-11-06T14:05:29.527Z,245.60
2022-11-06T14:07:57.844Z,219.13
2022-11-06T14:10:37.992Z,177.50
2022-11-06T14:13:06.791Z,132.77
2022-11-06T14:15:39.499Z,184.95
2022-11-06T14:18:06.313Z,167.20
2022-11-06T14:20:38.685Z,240.90
2022-11-06T14:23:29.793Z,145.82
2022-11-06T14:26:09.379Z,154.40
2022-11-06T14:28:45.110Z,155.80
2022-11-06T14:31:50.028Z,124.80
2022-11-06T14:34:32.108Z,148.57
2022-11-06T14:39:51.285Z,164.63
2022-11-06T14:42:33.000Z,238.55
2022-11-06T14:45:10.242Z,221.13
2022-11-06T14:47:56.679Z,129.68
2022-11-06T14:50:28.026Z,310.13
2022-11-06T14:53:06.232Z,270.15
2022-11-06T14:55:42.600Z,214.70
2022-11-06T14:58:23.061Z,265.40
2022-11-06T15:00:59.926Z,139.93
2022-11-06T15:03:35.639Z,135.35
2022-11-06T15:06:21.352Z,140.57
2022-11-06T15:08:50.659Z,137.48
2022-11-06T15:11:32.513Z,208.65
2022-11-06T15:14:01.120Z,202.40
2022-11-06T15:16:43.989Z,131.82
2022-11-06T15:19:24.950Z,273.88
2022-11-06T15:22:06.007Z,135.25
2022-11-06T15:24:50.391Z,229.20
2022-11-06T15:27:22.064Z,155.75
2022-11-06T15:29:54.225Z,197.30
2022-11-06T15:32:27.064Z,175.73
2022-11-06T15:35:00.178Z,254.88
2022-11-06T15:37:34.688Z,210.63
2022-11-06T15:40:01.977Z,137.00
2022-11-06T15:42:31.878Z,162.00
2022-11-06T15:45:09.496Z,115.90
2022-11-06T15:47:36.134Z,169.75
2022-11-06T15:50:23.011Z,129.50
2022-11-06T15:52:49.981Z,156.68
2022-11-06T15:55:25.098Z,140.65
2022-11-06T15:57:52.098Z,101.75
2022-11-06T16:00:23.716Z,98.07
2022-11-06T16:02:50.347Z,100.45
2022-11-06T16:05:18.612Z,100.72
2022-11-06T16:07:47.244Z,79.32
2022-11-06T16:10:18.976Z,91.03
2022-11-06T16:12:47.826Z,89.18
2022-11-06T16:15:45.363Z,95.85
2022-11-06T16:18:32.597Z,87.05
2022-11-06T16:21:11.712Z,90.20
2022-11-06T16:24:04.715Z,91.70
2022-11-06T16:26:36.880Z,86.85
2022-11-06T16:29:10.948Z,73.47
2022-11-06T16:31:38.563Z,100.18
2022-11-06T16:34:08.208Z,141.10
2022-11-06T16:37:02.272Z,78.50
2022-11-06T16:39:51.335Z,106.30
2022-11-06T16:42:31.481Z,84.10
2022-11-06T16:45:00.788Z,105.57
2022-11-06T16:47:27.786Z,88.80
2022-11-06T16:49:58.514Z,153.95
2022-11-06T16:52:26.776Z,155.63
2022-11-06T16:55:16.657Z,141.90
2022-11-06T16:57:55.834Z,120.72
2022-11-06T17:00:31.282Z,181.40
2022-11-06T17:03:18.315Z,101.00
2022-11-06T17:05:53.530Z,211.48
2022-11-06T17:08:32.091Z,174.85
2022-11-06T17:11:15.111Z,130.65
2022-11-06T17:13:44.311Z,137.63
2022-11-06T17:16:22.590Z,157.38
2022-11-06T17:18:49.938Z,104.13
2022-11-06T17:21:17.994Z,144.77
2022-11-06T17:23:46.554Z,131.38
2022-11-06T17:26:19.586Z,127.30
2022-11-06T17:28:46.222Z,160.00
2022-11-06T17:31:15.273Z,120.68
2022-11-06T17:33:42.924Z,97.03
2022-11-06T17:36:21.444Z,220.20
2022-11-06T17:38:48.564Z,140.63
2022-11-06T17:41:29.998Z,194.52
2022-11-06T17:44:02.540Z,107.90
2022-11-06T17:46:32.622Z,156.23
2022-11-06T17:49:00.411Z,193.68
2022-11-06T17:51:45.678Z,273.10
2022-11-06T17:54:13.043Z,164.73
2022-11-06T17:56:40.169Z,160.13
2022-11-06T17:59:08.733Z,198.55
2022-11-06T18:01:35.615Z,167.25
2022-11-06T18:04:02.451Z,155.32
2022-11-06T18:06:29.572Z,204.38
2022-11-06T18:08:57.917Z,140.02
2022-11-06T18:11:25.171Z,174.88
2022-11-06T18:13:52.101Z,202.65
2022-11-06T18:16:23.070Z,225.60
2022-11-06T18:18:50.071Z,188.37
2022-11-06T18:21:16.741Z,179.95
2022-11-06T18:23:43.336Z,235.90
2022-11-06T18:26:10.057Z,333.33
2022-11-06T18:28:36.721Z,143.30
2022-11-06T18:31:03.485Z,149.15
2022-11-06T18:33:30.537Z,224.40
2022-11-06T18:36:06.237Z,161.48
2022-11-06T18:38:33.947Z,186.25
2022-11-06T18:41:07.883Z,155.18
2022-11-06T18:43:34.577Z,155.10
2022-11-06T18:46:17.831Z,228.77
2022-11-06T18:48:45.044Z,155.85
2022-11-06T18:51:23.685Z,138.60
2022-11-06T18:54:01.716Z,147.30
2022-11-06T18:56:28.364Z,119.55
2022-11-06T18:58:55.616Z,207.77
2022-11-06T19:01:25.941Z,135.82
2022-11-06T19:03:52.863Z,119.15
2022-11-06T19:06:20.977Z,165.90
2022-11-06T19:08:49.038Z,412.67
2022-11-06T19:11:17.640Z,502.83
2022-11-06T19:13:47.822Z,257.77
2022-11-06T19:16:16.752Z,167.30
2022-11-06T19:18:43.346Z,184.43
2022-11-06T19:21:11.304Z,173.98
2022-11-06T19:23:40.963Z,135.60
2022-11-06T19:26:29.990Z,122.38
2022-11-06T19:28:58.372Z,110.78
2022-11-06T19:31:29.138Z,135.13
2022-11-06T19:34:00.366Z,119.10
2022-11-06T19:36:27.864Z,123.70
2022-11-06T19:38:57.406Z,177.20
2022-11-06T19:41:25.560Z,125.97
2022-11-06T19:43:52.311Z,145.15
2022-11-06T19:46:24.700Z,125.93
2022-11-06T19:48:52.600Z,152.25
2022-11-06T19:51:19.328Z,138.13
2022-11-06T19:53:45.994Z,132.68
2022-11-06T19:56:16.462Z,116.97
2022-11-06T19:58:43.614Z,122.53
2022-11-06T20:01:16.092Z,144.73
2022-11-06T20:03:43.571Z,120.93
2022-11-06T20:06:11.018Z,118.75
2022-11-06T20:08:38.881Z,124.55
2022-11-06T20:11:12.932Z,107.10
2022-11-06T20:13:40.445Z,136.57
2022-11-06T20:16:09.765Z,147.32
2022-11-06T20:18:36.622Z,177.90
2022-11-06T20:21:06.220Z,145.70
2022-11-06T20:23:33.792Z,214.43
2022-11-06T20:26:00.672Z,216.07
2022-11-06T20:28:27.628Z,290.23
2022-11-06T20:30:54.377Z,252.63
2022-11-06T20:33:21.216Z,179.18
2022-11-06T20:35:47.832Z,172.80
2022-11-06T20:38:14.841Z,167.48
2022-11-06T20:40:42.689Z,155.00
2022-11-06T20:43:09.875Z,179.15
2022-11-06T20:45:37.671Z,121.88
2022-11-06T20:48:06.036Z,132.38
2022-11-06T20:50:33.306Z,120.70
2022-11-06T20:53:00.546Z,110.90
2022-11-06T20:55:27.320Z,117.13
2022-11-06T20:57:53.879Z,105.60
2022-11-06T21:00:20.589Z,94.53
2022-11-06T21:02:47.390Z,112.88
2022-11-06T21:05:15.020Z,98.55
2022-11-06T21:07:41.772Z,107.43
2022-11-06T21:10:10.956Z,88.90
2022-11-06T21:12:38.056Z,113.15
2022-11-06T21:15:05.163Z,116.85
2022-11-06T21:17:31.950Z,103.78
2022-11-06T21:19:58.772Z,102.50
2022-11-06T21:22:25.656Z,105.97
2022-11-06T21:24:52.420Z,109.15
2022-11-06T21:27:19.258Z,122.30
2022-11-06T21:29:45.811Z,122.38
2022-11-06T21:32:12.394Z,117.63
2022-11-06T21:34:39.058Z,95.88
2022-11-06T21:37:05.703Z,115.85
2022-11-06T21:39:36.217Z,98.63
2022-11-06T21:42:04.482Z,122.87
2022-11-06T21:44:31.224Z,119.07
2022-11-06T21:46:57.827Z,106.20
2022-11-06T21:49:24.445Z,110.15
2022-11-06T21:51:51.026Z,98.03
2022-11-06T21:54:36.403Z,84.63
2022-11-06T21:57:03.010Z,85.68
2022-11-06T21:59:29.947Z,101.72
2022-11-06T22:01:56.649Z,92.22
2022-11-06T22:04:23.640Z,87.30
2022-11-06T22:06:52.423Z,104.15
2022-11-06T22:09:24.468Z,84.93
2022-11-06T22:11:52.122Z,88.38
2022-11-06T22:14:18.694Z,92.90
2022-11-06T22:16:47.016Z,95.97
2022-11-06T22:19:15.269Z,85.15
2022-11-06T22:21:42.850Z,102.97
2022-11-06T22:24:12.457Z,94.95
2022-11-06T22:26:39.717Z,86.72
2022-11-06T22:29:09.495Z,90.82
2022-11-06T22:31:36.284Z,98.80
2022-11-06T22:34:03.103Z,113.25
2022-11-06T22:36:29.713Z,112.95
2022-11-06T22:38:57.749Z,132.48
2022-11-06T22:41:24.918Z,114.75
2022-11-06T22:43:52.584Z,104.38
2022-11-06T22:46:22.889Z,116.93
2022-11-06T22:48:51.409Z,121.18
2022-11-06T22:51:23.620Z,128.80
2022-11-06T22:53:50.710Z,129.13
2022-11-06T22:56:17.419Z,119.97
2022-11-06T22:58:44.428Z,151.75
2022-11-06T23:01:11.724Z,156.40
2022-11-06T23:03:38.960Z,156.45
2022-11-06T23:06:07.630Z,171.35
2022-11-06T23:08:36.142Z,129.02
2022-11-06T23:11:08.869Z,157.73
2022-11-06T23:13:36.072Z,172.07
2022-11-06T23:16:08.446Z,173.32
2022-11-06T23:18:35.544Z,176.35
2022-11-06T23:21:02.728Z,162.20
2022-11-06T23:23:29.353Z,152.73
2022-11-06T23:25:55.917Z,163.73
2022-11-06T23:28:22.472Z,168.98
2022-11-06T23:30:49.070Z,154.55
2022-11-06T23:33:16.050Z,157.90
2022-11-06T23:35:42.956Z,154.90
2022-11-06T23:38:09.599Z,138.20
2022-11-06T23:40:36.163Z,132.25
2022-11-06T23:43:02.785Z,151.07
2022-11-06T23:45:48.128Z,122.40
2022-11-06T23:48:16.366Z,133.45
2022-11-06T23:51:01.027Z,135.38
2022-11-06T23:53:27.594Z,123.30
2022-11-06T23:55:54.149Z,123.50
2022-11-06T23:58:20.774Z,119.68
